Terminal Aerodrome Forecast
Issued by NWS Lake Charles, LA

Home | Current Version | Previous Version | Text Only | Print | Product List | Glossary On
Versions: 1 2 3 4 5 6 7 8 9 10 11 12 13 14 15 16 17 18 19 20 21 22 23 24 25
000
FTUS44 KLCH 271406 AAB
TAFAEX
TAF AMD
KAEX 271406Z 2714/2812 14005KT 5SM -TSRA SCT025CB SCT050 OVC100
     FM271500 16005KT P6SM -RA BKN025 OVC100
     FM272000 15005KT 5SM -TSRA BKN030CB OVC170
     FM272300 14004KT P6SM BKN170
     FM280800 15004KT 5SM BR BKN015 OVC150=

USA.gov is the U.S. government's official web portal to all federal, state and local government web resources and services.